sensor_id;sensor_type;location;lat;lon;timestamp;temperature;humidity
39951;DHT22;25629;51.444;-2.606;2022-09-09T00:04:13;16.50;99.90
39951;DHT22;25629;51.444;-2.606;2022-09-09T00:06:46;16.40;99.90
39951;DHT22;25629;51.444;-2.606;2022-09-09T00:09:19;16.40;99.90
39951;DHT22;25629;51.444;-2.606;2022-09-09T00:11:51;16.40;99.90
39951;DHT22;25629;51.444;-2.606;2022-09-09T00:16:56;16.40;99.90
39951;DHT22;25629;51.444;-2.606;2022-09-09T00:19:41;16.40;99.90
39951;DHT22;25629;51.444;-2.606;2022-09-09T00:22:25;16.40;99.90
39951;DHT22;25629;51.444;-2.606;2022-09-09T00:24:56;16.40;99.90
39951;DHT22;25629;51.444;-2.606;2022-09-09T00:27:40;16.40;99.90
39951;DHT22;25629;51.444;-2.606;2022-09-09T00:33:09;16.30;99.90
39951;DHT22;25629;51.444;-2.606;2022-09-09T00:35:45;16.30;99.90
39951;DHT22;25629;51.444;-2.606;2022-09-09T00:38:13;16.30;99.90
39951;DHT22;25629;51.444;-2.606;2022-09-09T00:43:31;16.30;99.90
39951;DHT22;25629;51.444;-2.606;2022-09-09T00:48:39;16.30;99.90
39951;DHT22;25629;51.444;-2.606;2022-09-09T00:51:15;16.20;99.90
39951;DHT22;25629;51.444;-2.606;2022-09-09T00:57:12;16.30;99.90
39951;DHT22;25629;51.444;-2.606;2022-09-09T00:59:48;16.20;99.90
39951;DHT22;25629;51.444;-2.606;2022-09-09T01:02:39;16.20;99.90
39951;DHT22;25629;51.444;-2.606;2022-09-09T01:07:51;16.20;99.90
39951;DHT22;25629;51.444;-2.606;2022-09-09T01:13:27;16.20;99.90
39951;DHT22;25629;51.444;-2.606;2022-09-09T01:15:58;16.10;99.90
39951;DHT22;25629;51.444;-2.606;2022-09-09T01:18:29;16.00;99.90
39951;DHT22;25629;51.444;-2.606;2022-09-09T01:26:48;15.90;99.90
39951;DHT22;25629;51.444;-2.606;2022-09-09T01:29:18;15.90;99.90
39951;DHT22;25629;51.444;-2.606;2022-09-09T01:35:04;15.80;99.90
39951;DHT22;25629;51.444;-2.606;2022-09-09T01:37:31;15.70;99.90
39951;DHT22;25629;51.444;-2.606;2022-09-09T01:39:56;15.70;99.90
39951;DHT22;25629;51.444;-2.606;2022-09-09T01:42:22;15.70;99.90
39951;DHT22;25629;51.444;-2.606;2022-09-09T01:44:47;15.70;99.90
39951;DHT22;25629;51.444;-2.606;2022-09-09T01:47:14;15.60;99.90
39951;DHT22;25629;51.444;-2.606;2022-09-09T01:49:40;15.60;99.90
39951;DHT22;25629;51.444;-2.606;2022-09-09T01:52:05;15.60;99.90
39951;DHT22;25629;51.444;-2.606;2022-09-09T01:54:32;15.60;99.90
39951;DHT22;25629;51.444;-2.606;2022-09-09T01:57:18;15.60;99.90
39951;DHT22;25629;51.444;-2.606;2022-09-09T02:00:06;15.60;99.90
39951;DHT22;25629;51.444;-2.606;2022-09-09T02:02:56;15.60;99.90
39951;DHT22;25629;51.444;-2.606;2022-09-09T02:05:38;15.60;99.90
39951;DHT22;25629;51.444;-2.606;2022-09-09T02:08:17;15.70;99.90
39951;DHT22;25629;51.444;-2.606;2022-09-09T02:13:16;15.70;99.90
39951;DHT22;25629;51.444;-2.606;2022-09-09T02:21:11;15.80;99.90
39951;DHT22;25629;51.444;-2.606;2022-09-09T02:23:40;15.80;99.90
39951;DHT22;25629;51.444;-2.606;2022-09-09T02:26:08;15.80;99.90
39951;DHT22;25629;51.444;-2.606;2022-09-09T02:28:38;15.80;99.90
39951;DHT22;25629;51.444;-2.606;2022-09-09T02:31:05;15.80;99.90
39951;DHT22;25629;51.444;-2.606;2022-09-09T02:33:38;15.80;99.90
39951;DHT22;25629;51.444;-2.606;2022-09-09T02:36:06;15.80;99.90
39951;DHT22;25629;51.444;-2.606;2022-09-09T02:38:37;15.80;99.90
39951;DHT22;25629;51.444;-2.606;2022-09-09T02:41:05;15.90;99.90
39951;DHT22;25629;51.444;-2.606;2022-09-09T02:43:35;15.90;99.90
39951;DHT22;25629;51.444;-2.606;2022-09-09T02:48:44;15.90;99.90
39951;DHT22;25629;51.444;-2.606;2022-09-09T02:56:49;16.00;99.90
39951;DHT22;25629;51.444;-2.606;2022-09-09T02:59:16;16.00;99.90
39951;DHT22;25629;51.444;-2.606;2022-09-09T03:01:42;16.00;99.90
39951;DHT22;25629;51.444;-2.606;2022-09-09T03:04:09;16.00;99.90
39951;DHT22;25629;51.444;-2.606;2022-09-09T03:06:35;15.90;99.90
39951;DHT22;25629;51.444;-2.606;2022-09-09T03:09:01;15.90;99.90
39951;DHT22;25629;51.444;-2.606;2022-09-09T03:11:28;16.00;99.90
39951;DHT22;25629;51.444;-2.606;2022-09-09T03:13:54;16.00;99.90
39951;DHT22;25629;51.444;-2.606;2022-09-09T03:16:21;16.00;99.90
39951;DHT22;25629;51.444;-2.606;2022-09-09T03:18:47;15.90;99.90
39951;DHT22;25629;51.444;-2.606;2022-09-09T03:21:13;15.90;99.90
39951;DHT22;25629;51.444;-2.606;2022-09-09T03:23:39;15.90;99.90
39951;DHT22;25629;51.444;-2.606;2022-09-09T03:26:05;15.80;99.90
39951;DHT22;25629;51.444;-2.606;2022-09-09T03:28:31;15.80;99.90
39951;DHT22;25629;51.444;-2.606;2022-09-09T03:31:04;15.80;99.90
39951;DHT22;25629;51.444;-2.606;2022-09-09T03:33:30;15.80;99.90
39951;DHT22;25629;51.444;-2.606;2022-09-09T03:35:57;15.80;99.90
39951;DHT22;25629;51.444;-2.606;2022-09-09T03:38:26;15.80;99.90
39951;DHT22;25629;51.444;-2.606;2022-09-09T03:40:56;15.90;99.90
39951;DHT22;25629;51.444;-2.606;2022-09-09T03:43:26;15.80;99.90
39951;DHT22;25629;51.444;-2.606;2022-09-09T03:45:53;15.80;99.90
39951;DHT22;25629;51.444;-2.606;2022-09-09T03:48:22;15.80;99.90
39951;DHT22;25629;51.444;-2.606;2022-09-09T03:50:50;15.80;99.90
39951;DHT22;25629;51.444;-2.606;2022-09-09T03:53:18;15.70;99.90
39951;DHT22;25629;51.444;-2.606;2022-09-09T03:55:45;15.70;99.90
39951;DHT22;25629;51.444;-2.606;2022-09-09T03:58:13;15.70;99.90
39951;DHT22;25629;51.444;-2.606;2022-09-09T04:00:39;15.80;99.90
39951;DHT22;25629;51.444;-2.606;2022-09-09T04:03:11;15.80;99.90
39951;DHT22;25629;51.444;-2.606;2022-09-09T04:05:39;15.80;99.90
39951;DHT22;25629;51.444;-2.606;2022-09-09T04:08:08;15.80;99.90
39951;DHT22;25629;51.444;-2.606;2022-09-09T04:10:35;15.80;99.90
39951;DHT22;25629;51.444;-2.606;2022-09-09T04:13:04;15.90;99.90
39951;DHT22;25629;51.444;-2.606;2022-09-09T04:15:30;15.90;99.90
39951;DHT22;25629;51.444;-2.606;2022-09-09T04:17:56;15.90;99.90
39951;DHT22;25629;51.444;-2.606;2022-09-09T04:20:22;15.90;99.90
39951;DHT22;25629;51.444;-2.606;2022-09-09T04:22:47;15.80;99.90
39951;DHT22;25629;51.444;-2.606;2022-09-09T04:25:13;15.80;99.90
39951;DHT22;25629;51.444;-2.606;2022-09-09T04:27:39;15.80;99.90
39951;DHT22;25629;51.444;-2.606;2022-09-09T04:30:06;15.90;99.90
39951;DHT22;25629;51.444;-2.606;2022-09-09T04:32:35;15.80;99.90
39951;DHT22;25629;51.444;-2.606;2022-09-09T04:35:03;15.90;99.90
39951;DHT22;25629;51.444;-2.606;2022-09-09T04:37:29;15.90;99.90
39951;DHT22;25629;51.444;-2.606;2022-09-09T04:39:54;15.90;99.90
39951;DHT22;25629;51.444;-2.606;2022-09-09T04:42:20;15.90;99.90
39951;DHT22;25629;51.444;-2.606;2022-09-09T04:44:45;15.90;99.90
39951;DHT22;25629;51.444;-2.606;2022-09-09T04:47:11;16.00;99.90
39951;DHT22;25629;51.444;-2.606;2022-09-09T04:49:37;15.90;99.90
39951;DHT22;25629;51.444;-2.606;2022-09-09T04:52:04;15.90;99.90
39951;DHT22;25629;51.444;-2.606;2022-09-09T04:54:29;16.00;99.90
39951;DHT22;25629;51.444;-2.606;2022-09-09T04:56:55;16.00;99.90
39951;DHT22;25629;51.444;-2.606;2022-09-09T04:59:21;16.00;99.90
39951;DHT22;25629;51.444;-2.606;2022-09-09T05:01:48;16.00;99.90
39951;DHT22;25629;51.444;-2.606;2022-09-09T05:04:13;15.90;99.90
39951;DHT22;25629;51.444;-2.606;2022-09-09T05:06:41;15.90;99.90
39951;DHT22;25629;51.444;-2.606;2022-09-09T05:09:08;15.90;99.90
39951;DHT22;25629;51.444;-2.606;2022-09-09T05:11:34;16.00;99.90
39951;DHT22;25629;51.444;-2.606;2022-09-09T05:14:04;16.00;99.90
39951;DHT22;25629;51.444;-2.606;2022-09-09T05:16:30;16.00;99.90
39951;DHT22;25629;51.444;-2.606;2022-09-09T05:18:56;16.00;99.90
39951;DHT22;25629;51.444;-2.606;2022-09-09T05:21:24;16.00;99.90
39951;DHT22;25629;51.444;-2.606;2022-09-09T05:23:52;16.00;99.90
39951;DHT22;25629;51.444;-2.606;2022-09-09T05:26:20;16.00;99.90
39951;DHT22;25629;51.444;-2.606;2022-09-09T05:28:47;16.00;99.90
39951;DHT22;25629;51.444;-2.606;2022-09-09T05:31:15;16.00;99.90
39951;DHT22;25629;51.444;-2.606;2022-09-09T05:33:42;15.90;99.90
39951;DHT22;25629;51.444;-2.606;2022-09-09T05:36:14;15.90;99.90
39951;DHT22;25629;51.444;-2.606;2022-09-09T05:38:40;15.90;99.90
39951;DHT22;25629;51.444;-2.606;2022-09-09T05:41:07;15.90;99.90
39951;DHT22;25629;51.444;-2.606;2022-09-09T05:43:33;15.90;99.90
39951;DHT22;25629;51.444;-2.606;2022-09-09T05:46:08;15.90;99.90
39951;DHT22;25629;51.444;-2.606;2022-09-09T05:48:36;15.90;99.90
39951;DHT22;25629;51.444;-2.606;2022-09-09T05:51:03;15.90;99.90
39951;DHT22;25629;51.444;-2.606;2022-09-09T05:53:29;15.90;99.90
39951;DHT22;25629;51.444;-2.606;2022-09-09T05:56:03;15.90;99.90
39951;DHT22;25629;51.444;-2.606;2022-09-09T05:58:33;15.90;99.90
39951;DHT22;25629;51.444;-2.606;2022-09-09T06:01:07;15.90;99.90
39951;DHT22;25629;51.444;-2.606;2022-09-09T06:03:34;15.90;99.90
39951;DHT22;25629;51.444;-2.606;2022-09-09T06:06:03;16.00;99.90
39951;DHT22;25629;51.444;-2.606;2022-09-09T06:08:32;16.00;99.90
39951;DHT22;25629;51.444;-2.606;2022-09-09T06:11:02;16.00;99.90
39951;DHT22;25629;51.444;-2.606;2022-09-09T06:13:29;16.00;99.90
39951;DHT22;25629;51.444;-2.606;2022-09-09T06:15:55;16.00;99.90
39951;DHT22;25629;51.444;-2.606;2022-09-09T06:18:20;16.00;99.90
39951;DHT22;25629;51.444;-2.606;2022-09-09T06:20:56;16.00;99.90
39951;DHT22;25629;51.444;-2.606;2022-09-09T06:23:22;16.00;99.90
39951;DHT22;25629;51.444;-2.606;2022-09-09T06:25:48;16.00;99.90
39951;DHT22;25629;51.444;-2.606;2022-09-09T06:28:15;16.10;99.90
39951;DHT22;25629;51.444;-2.606;2022-09-09T06:30:41;16.10;99.90
39951;DHT22;25629;51.444;-2.606;2022-09-09T06:33:07;16.10;99.90
39951;DHT22;25629;51.444;-2.606;2022-09-09T06:35:32;16.10;99.90
39951;DHT22;25629;51.444;-2.606;2022-09-09T06:37:58;16.20;99.90
39951;DHT22;25629;51.444;-2.606;2022-09-09T06:40:24;16.20;99.90
39951;DHT22;25629;51.444;-2.606;2022-09-09T06:42:50;16.20;99.90
39951;DHT22;25629;51.444;-2.606;2022-09-09T06:45:16;16.20;99.90
39951;DHT22;25629;51.444;-2.606;2022-09-09T06:47:42;16.20;99.90
39951;DHT22;25629;51.444;-2.606;2022-09-09T06:50:08;16.30;99.90
39951;DHT22;25629;51.444;-2.606;2022-09-09T06:52:35;16.40;99.90
39951;DHT22;25629;51.444;-2.606;2022-09-09T06:55:01;16.50;99.90
39951;DHT22;25629;51.444;-2.606;2022-09-09T06:57:28;16.50;99.90
39951;DHT22;25629;51.444;-2.606;2022-09-09T06:59:53;16.60;99.90
39951;DHT22;25629;51.444;-2.606;2022-09-09T07:02:19;16.60;99.90
39951;DHT22;25629;51.444;-2.606;2022-09-09T07:04:45;16.60;99.90
39951;DHT22;25629;51.444;-2.606;2022-09-09T07:07:11;16.70;99.90
39951;DHT22;25629;51.444;-2.606;2022-09-09T07:09:39;16.70;99.90
39951;DHT22;25629;51.444;-2.606;2022-09-09T07:12:06;16.80;99.90
39951;DHT22;25629;51.444;-2.606;2022-09-09T07:14:32;16.80;99.90
39951;DHT22;25629;51.444;-2.606;2022-09-09T07:16:59;16.90;99.90
39951;DHT22;25629;51.444;-2.606;2022-09-09T07:19:26;17.00;99.90
39951;DHT22;25629;51.444;-2.606;2022-09-09T07:21:51;17.10;99.90
39951;DHT22;25629;51.444;-2.606;2022-09-09T07:24:17;17.30;99.90
39951;DHT22;25629;51.444;-2.606;2022-09-09T07:26:43;17.40;99.90
39951;DHT22;25629;51.444;-2.606;2022-09-09T07:29:09;17.50;99.90
39951;DHT22;25629;51.444;-2.606;2022-09-09T07:31:36;17.60;99.90
39951;DHT22;25629;51.444;-2.606;2022-09-09T07:34:03;17.60;99.90
39951;DHT22;25629;51.444;-2.606;2022-09-09T07:36:34;17.60;99.90
39951;DHT22;25629;51.444;-2.606;2022-09-09T07:39:03;17.60;99.90
39951;DHT22;25629;51.444;-2.606;2022-09-09T07:43:57;17.60;99.90
39951;DHT22;25629;51.444;-2.606;2022-09-09T07:46:25;17.60;99.90
39951;DHT22;25629;51.444;-2.606;2022-09-09T07:48:53;17.70;99.90
39951;DHT22;25629;51.444;-2.606;2022-09-09T07:51:26;17.60;99.90
39951;DHT22;25629;51.444;-2.606;2022-09-09T07:53:54;17.60;99.90
39951;DHT22;25629;51.444;-2.606;2022-09-09T07:56:20;17.50;99.90
39951;DHT22;25629;51.444;-2.606;2022-09-09T07:58:50;17.50;99.90
39951;DHT22;25629;51.444;-2.606;2022-09-09T08:01:19;17.60;99.90
39951;DHT22;25629;51.444;-2.606;2022-09-09T08:03:47;17.80;99.90
39951;DHT22;25629;51.444;-2.606;2022-09-09T08:06:13;18.00;99.90
39951;DHT22;25629;51.444;-2.606;2022-09-09T08:08:39;18.40;99.90
39951;DHT22;25629;51.444;-2.606;2022-09-09T08:11:13;18.60;99.90
39951;DHT22;25629;51.444;-2.606;2022-09-09T08:13:40;18.90;99.90
39951;DHT22;25629;51.444;-2.606;2022-09-09T08:16:08;19.00;99.90
39951;DHT22;25629;51.444;-2.606;2022-09-09T08:18:35;19.10;99.90
39951;DHT22;25629;51.444;-2.606;2022-09-09T08:21:14;19.00;99.90
39951;DHT22;25629;51.444;-2.606;2022-09-09T08:23:41;19.20;99.90
39951;DHT22;25629;51.444;-2.606;2022-09-09T08:26:13;19.10;99.90
39951;DHT22;25629;51.444;-2.606;2022-09-09T08:28:39;18.90;99.90
39951;DHT22;25629;51.444;-2.606;2022-09-09T08:31:14;18.80;99.90
39951;DHT22;25629;51.444;-2.606;2022-09-09T08:33:40;18.50;99.90
39951;DHT22;25629;51.444;-2.606;2022-09-09T08:36:09;18.40;99.90
39951;DHT22;25629;51.444;-2.606;2022-09-09T08:38:35;18.30;99.90
39951;DHT22;25629;51.444;-2.606;2022-09-09T08:43:48;18.00;99.90
39951;DHT22;25629;51.444;-2.606;2022-09-09T08:46:26;18.00;99.90
39951;DHT22;25629;51.444;-2.606;2022-09-09T08:52:02;17.90;99.90
39951;DHT22;25629;51.444;-2.606;2022-09-09T08:54:33;17.80;99.90
39951;DHT22;25629;51.444;-2.606;2022-09-09T08:57:00;17.80;99.90
39951;DHT22;25629;51.444;-2.606;2022-09-09T08:59:25;17.90;99.90
39951;DHT22;25629;51.444;-2.606;2022-09-09T09:12:26;17.80;99.90
39951;DHT22;25629;51.444;-2.606;2022-09-09T09:14:52;17.80;99.90
39951;DHT22;25629;51.444;-2.606;2022-09-09T09:17:23;17.70;99.90
39951;DHT22;25629;51.444;-2.606;2022-09-09T09:19:50;17.70;99.90
39951;DHT22;25629;51.444;-2.606;2022-09-09T09:22:23;17.70;99.90
39951;DHT22;25629;51.444;-2.606;2022-09-09T09:24:54;17.60;99.90
39951;DHT22;25629;51.444;-2.606;2022-09-09T09:27:35;17.60;99.90
39951;DHT22;25629;51.444;-2.606;2022-09-09T09:30:12;17.60;99.90
39951;DHT22;25629;51.444;-2.606;2022-09-09T09:32:49;17.60;99.90
39951;DHT22;25629;51.444;-2.606;2022-09-09T09:35:16;17.60;99.90
39951;DHT22;25629;51.444;-2.606;2022-09-09T09:37:42;17.60;99.90
39951;DHT22;25629;51.444;-2.606;2022-09-09T09:40:14;17.70;99.90
39951;DHT22;25629;51.444;-2.606;2022-09-09T09:42:58;17.70;99.90
39951;DHT22;25629;51.444;-2.606;2022-09-09T09:45:43;17.70;99.90
39951;DHT22;25629;51.444;-2.606;2022-09-09T09:48:13;17.60;99.90
39951;DHT22;25629;51.444;-2.606;2022-09-09T09:51:09;17.60;99.90
39951;DHT22;25629;51.444;-2.606;2022-09-09T09:53:37;17.60;99.90
39951;DHT22;25629;51.444;-2.606;2022-09-09T09:56:07;17.60;99.90
39951;DHT22;25629;51.444;-2.606;2022-09-09T09:58:48;17.60;99.90
39951;DHT22;25629;51.444;-2.606;2022-09-09T10:01:29;17.60;99.90
39951;DHT22;25629;51.444;-2.606;2022-09-09T10:04:22;17.70;99.90
39951;DHT22;25629;51.444;-2.606;2022-09-09T10:06:49;17.70;99.90
39951;DHT22;25629;51.444;-2.606;2022-09-09T10:09:29;17.70;99.90
39951;DHT22;25629;51.444;-2.606;2022-09-09T10:12:17;17.80;99.90
39951;DHT22;25629;51.444;-2.606;2022-09-09T10:17:58;17.80;99.90
39951;DHT22;25629;51.444;-2.606;2022-09-09T10:20:58;17.60;99.90
39951;DHT22;25629;51.444;-2.606;2022-09-09T10:26:31;17.60;99.90
39951;DHT22;25629;51.444;-2.606;2022-09-09T10:35:09;17.60;99.90
39951;DHT22;25629;51.444;-2.606;2022-09-09T10:41:00;17.70;99.90
39951;DHT22;25629;51.444;-2.606;2022-09-09T10:43:18;17.90;99.90
39951;DHT22;25629;51.444;-2.606;2022-09-09T10:57:16;17.90;99.90
39951;DHT22;25629;51.444;-2.606;2022-09-09T10:59:50;18.10;99.90
39951;DHT22;25629;51.444;-2.606;2022-09-09T11:02:29;18.30;99.90
39951;DHT22;25629;51.444;-2.606;2022-09-09T11:12:52;18.90;99.90
39951;DHT22;25629;51.444;-2.606;2022-09-09T11:15:28;19.10;99.90
39951;DHT22;25629;51.444;-2.606;2022-09-09T11:17:59;19.10;99.90
39951;DHT22;25629;51.444;-2.606;2022-09-09T11:20:26;19.30;99.90
39951;DHT22;25629;51.444;-2.606;2022-09-09T11:23:06;19.40;99.90
39951;DHT22;25629;51.444;-2.606;2022-09-09T11:25:48;19.70;99.90
39951;DHT22;25629;51.444;-2.606;2022-09-09T11:31:08;20.30;99.90
39951;DHT22;25629;51.444;-2.606;2022-09-09T11:39:24;20.60;99.90
39951;DHT22;25629;51.444;-2.606;2022-09-09T11:42:26;21.30;99.90
39951;DHT22;25629;51.444;-2.606;2022-09-09T11:44:52;21.70;99.90
39951;DHT22;25629;51.444;-2.606;2022-09-09T11:47:27;21.80;99.90
39951;DHT22;25629;51.444;-2.606;2022-09-09T11:52:43;21.90;99.90
39951;DHT22;25629;51.444;-2.606;2022-09-09T11:57:46;21.30;99.90
39951;DHT22;25629;51.444;-2.606;2022-09-09T12:00:35;21.30;99.90
39951;DHT22;25629;51.444;-2.606;2022-09-09T12:03:04;21.30;99.90
39951;DHT22;25629;51.444;-2.606;2022-09-09T12:05:44;21.30;99.90
39951;DHT22;25629;51.444;-2.606;2022-09-09T12:08:16;21.40;99.90
39951;DHT22;25629;51.444;-2.606;2022-09-09T12:10:57;21.40;99.90
39951;DHT22;25629;51.444;-2.606;2022-09-09T12:13:26;21.60;99.90
39951;DHT22;25629;51.444;-2.606;2022-09-09T12:15:57;21.50;99.90
39951;DHT22;25629;51.444;-2.606;2022-09-09T12:18:33;21.30;99.90
39951;DHT22;25629;51.444;-2.606;2022-09-09T12:24:07;21.10;99.90
39951;DHT22;25629;51.444;-2.606;2022-09-09T12:27:40;20.80;99.90
39951;DHT22;25629;51.444;-2.606;2022-09-09T12:32:25;20.60;99.90
39951;DHT22;25629;51.444;-2.606;2022-09-09T12:35:04;20.40;99.90
39951;DHT22;25629;51.444;-2.606;2022-09-09T12:42:28;20.10;99.90
39951;DHT22;25629;51.444;-2.606;2022-09-09T12:44:58;20.10;99.90
39951;DHT22;25629;51.444;-2.606;2022-09-09T12:47:39;20.00;99.90
39951;DHT22;25629;51.444;-2.606;2022-09-09T12:50:26;19.90;99.90
39951;DHT22;25629;51.444;-2.606;2022-09-09T12:53:02;19.50;99.90
39951;DHT22;25629;51.444;-2.606;2022-09-09T12:55:32;19.40;99.90
39951;DHT22;25629;51.444;-2.606;2022-09-09T12:58:00;19.20;99.90
39951;DHT22;25629;51.444;-2.606;2022-09-09T13:00:26;19.00;99.90
39951;DHT22;25629;51.444;-2.606;2022-09-09T13:02:57;19.00;99.90
39951;DHT22;25629;51.444;-2.606;2022-09-09T13:05:35;19.10;99.90
39951;DHT22;25629;51.444;-2.606;2022-09-09T13:08:03;19.10;99.90
39951;DHT22;25629;51.444;-2.606;2022-09-09T13:10:35;19.10;99.90
39951;DHT22;25629;51.444;-2.606;2022-09-09T13:13:01;19.00;99.90
39951;DHT22;25629;51.444;-2.606;2022-09-09T13:15:29;18.90;99.90
39951;DHT22;25629;51.444;-2.606;2022-09-09T13:17:59;18.80;99.90
39951;DHT22;25629;51.444;-2.606;2022-09-09T13:20:27;18.70;99.90
39951;DHT22;25629;51.444;-2.606;2022-09-09T13:22:54;18.70;99.90
39951;DHT22;25629;51.444;-2.606;2022-09-09T13:25:26;18.90;99.90
39951;DHT22;25629;51.444;-2.606;2022-09-09T13:28:04;19.20;99.90
39951;DHT22;25629;51.444;-2.606;2022-09-09T13:30:35;19.80;99.90
39951;DHT22;25629;51.444;-2.606;2022-09-09T13:35:44;21.30;99.90
39951;DHT22;25629;51.444;-2.606;2022-09-09T13:38:14;21.90;99.90
39951;DHT22;25629;51.444;-2.606;2022-09-09T13:40:40;22.30;99.90
39951;DHT22;25629;51.444;-2.606;2022-09-09T13:43:21;22.70;99.90
39951;DHT22;25629;51.444;-2.606;2022-09-09T13:45:59;23.60;99.90
39951;DHT22;25629;51.444;-2.606;2022-09-09T13:48:25;24.90;99.90
39951;DHT22;25629;51.444;-2.606;2022-09-09T13:50:59;24.90;99.90
39951;DHT22;25629;51.444;-2.606;2022-09-09T13:53:26;24.40;99.90
39951;DHT22;25629;51.444;-2.606;2022-09-09T13:55:52;23.90;99.90
39951;DHT22;25629;51.444;-2.606;2022-09-09T13:58:18;23.80;99.90
39951;DHT22;25629;51.444;-2.606;2022-09-09T14:00:45;23.20;99.90
39951;DHT22;25629;51.444;-2.606;2022-09-09T14:03:11;22.80;99.90
39951;DHT22;25629;51.444;-2.606;2022-09-09T14:05:37;22.50;99.90
39951;DHT22;25629;51.444;-2.606;2022-09-09T14:08:07;22.20;99.90
39951;DHT22;25629;51.444;-2.606;2022-09-09T14:10:36;21.80;99.90
39951;DHT22;25629;51.444;-2.606;2022-09-09T14:13:02;21.60;99.90
39951;DHT22;25629;51.444;-2.606;2022-09-09T14:15:28;21.40;99.90
39951;DHT22;25629;51.444;-2.606;2022-09-09T14:17:54;21.40;99.90
39951;DHT22;25629;51.444;-2.606;2022-09-09T14:20:20;21.70;99.90
39951;DHT22;25629;51.444;-2.606;2022-09-09T14:22:46;21.60;99.90
39951;DHT22;25629;51.444;-2.606;2022-09-09T14:25:12;21.40;99.90
39951;DHT22;25629;51.444;-2.606;2022-09-09T14:27:39;21.10;99.90
39951;DHT22;25629;51.444;-2.606;2022-09-09T14:30:06;21.30;99.90
39951;DHT22;25629;51.444;-2.606;2022-09-09T14:32:32;21.80;99.90
39951;DHT22;25629;51.444;-2.606;2022-09-09T14:34:58;23.20;99.90
39951;DHT22;25629;51.444;-2.606;2022-09-09T14:37:24;24.60;99.90
39951;DHT22;25629;51.444;-2.606;2022-09-09T14:39:50;25.50;99.90
39951;DHT22;25629;51.444;-2.606;2022-09-09T14:42:17;26.10;99.90
39951;DHT22;25629;51.444;-2.606;2022-09-09T14:44:42;25.90;99.90
39951;DHT22;25629;51.444;-2.606;2022-09-09T14:47:08;25.00;99.90
39951;DHT22;25629;51.444;-2.606;2022-09-09T14:49:35;24.10;99.90
39951;DHT22;25629;51.444;-2.606;2022-09-09T14:52:01;23.50;99.90
39951;DHT22;25629;51.444;-2.606;2022-09-09T14:54:27;22.80;99.90
39951;DHT22;25629;51.444;-2.606;2022-09-09T14:56:54;22.50;99.90
39951;DHT22;25629;51.444;-2.606;2022-09-09T14:59:19;22.50;99.90
39951;DHT22;25629;51.444;-2.606;2022-09-09T15:01:45;22.20;99.90
39951;DHT22;25629;51.444;-2.606;2022-09-09T15:04:12;22.40;99.90
39951;DHT22;25629;51.444;-2.606;2022-09-09T15:06:39;23.00;99.90
39951;DHT22;25629;51.444;-2.606;2022-09-09T15:09:05;24.10;99.90
39951;DHT22;25629;51.444;-2.606;2022-09-09T15:11:34;25.30;99.90
39951;DHT22;25629;51.444;-2.606;2022-09-09T15:14:04;25.60;99.90
39951;DHT22;25629;51.444;-2.606;2022-09-09T15:16:30;25.50;99.90
39951;DHT22;25629;51.444;-2.606;2022-09-09T15:18:59;25.40;99.90
39951;DHT22;25629;51.444;-2.606;2022-09-09T15:21:28;25.70;99.90
39951;DHT22;25629;51.444;-2.606;2022-09-09T15:23:55;25.80;99.90
39951;DHT22;25629;51.444;-2.606;2022-09-09T15:26:21;25.40;99.90
39951;DHT22;25629;51.444;-2.606;2022-09-09T15:28:47;25.80;99.90
39951;DHT22;25629;51.444;-2.606;2022-09-09T15:31:22;26.30;99.90
39951;DHT22;25629;51.444;-2.606;2022-09-09T15:33:55;26.40;99.90
39951;DHT22;25629;51.444;-2.606;2022-09-09T15:36:31;26.20;99.90
39951;DHT22;25629;51.444;-2.606;2022-09-09T15:39:02;26.50;99.90
39951;DHT22;25629;51.444;-2.606;2022-09-09T15:41:29;26.70;99.90
39951;DHT22;25629;51.444;-2.606;2022-09-09T15:43:57;27.00;99.90
39951;DHT22;25629;51.444;-2.606;2022-09-09T15:46:32;27.40;99.90
39951;DHT22;25629;51.444;-2.606;2022-09-09T15:49:09;27.80;99.30
39951;DHT22;25629;51.444;-2.606;2022-09-09T15:51:37;27.80;98.90
39951;DHT22;25629;51.444;-2.606;2022-09-09T15:54:03;27.80;98.30
39951;DHT22;25629;51.444;-2.606;2022-09-09T15:56:30;27.80;98.20
39951;DHT22;25629;51.444;-2.606;2022-09-09T15:58:57;27.80;97.80
39951;DHT22;25629;51.444;-2.606;2022-09-09T16:01:23;27.30;98.60
39951;DHT22;25629;51.444;-2.606;2022-09-09T16:03:49;26.40;99.30
39951;DHT22;25629;51.444;-2.606;2022-09-09T16:06:19;25.30;99.90
39951;DHT22;25629;51.444;-2.606;2022-09-09T16:08:48;24.50;99.90
39951;DHT22;25629;51.444;-2.606;2022-09-09T16:11:25;23.90;99.90
39951;DHT22;25629;51.444;-2.606;2022-09-09T16:13:52;24.30;99.90
39951;DHT22;25629;51.444;-2.606;2022-09-09T16:16:21;25.00;99.90
39951;DHT22;25629;51.444;-2.606;2022-09-09T16:18:51;25.90;99.90
39951;DHT22;25629;51.444;-2.606;2022-09-09T16:21:32;26.00;99.90
39951;DHT22;25629;51.444;-2.606;2022-09-09T16:24:00;25.40;99.90
39951;DHT22;25629;51.444;-2.606;2022-09-09T16:26:27;25.40;99.90
39951;DHT22;25629;51.444;-2.606;2022-09-09T16:28:53;26.10;99.90
39951;DHT22;25629;51.444;-2.606;2022-09-09T16:31:22;26.80;99.70
39951;DHT22;25629;51.444;-2.606;2022-09-09T16:33:48;27.20;98.80
39951;DHT22;25629;51.444;-2.606;2022-09-09T16:36:18;26.60;99.50
39951;DHT22;25629;51.444;-2.606;2022-09-09T16:38:44;27.10;99.10
39951;DHT22;25629;51.444;-2.606;2022-09-09T16:41:11;27.50;98.40
39951;DHT22;25629;51.444;-2.606;2022-09-09T16:43:38;27.70;98.30
39951;DHT22;25629;51.444;-2.606;2022-09-09T16:46:15;27.70;98.10
39951;DHT22;25629;51.444;-2.606;2022-09-09T16:48:42;27.30;98.70
39951;DHT22;25629;51.444;-2.606;2022-09-09T16:51:14;26.30;99.40
39951;DHT22;25629;51.444;-2.606;2022-09-09T16:53:40;25.20;99.90
39951;DHT22;25629;51.444;-2.606;2022-09-09T16:56:19;24.10;99.90
39951;DHT22;25629;51.444;-2.606;2022-09-09T16:58:50;23.40;99.90
39951;DHT22;25629;51.444;-2.606;2022-09-09T17:01:16;22.80;99.90
39951;DHT22;25629;51.444;-2.606;2022-09-09T17:03:42;22.20;99.90
39951;DHT22;25629;51.444;-2.606;2022-09-09T17:06:12;22.00;99.90
39951;DHT22;25629;51.444;-2.606;2022-09-09T17:08:39;22.40;99.90
39951;DHT22;25629;51.444;-2.606;2022-09-09T17:11:25;22.40;99.90
39951;DHT22;25629;51.444;-2.606;2022-09-09T17:13:52;22.00;99.90
39951;DHT22;25629;51.444;-2.606;2022-09-09T17:16:20;21.60;99.90
39951;DHT22;25629;51.444;-2.606;2022-09-09T17:18:48;21.10;99.90
39951;DHT22;25629;51.444;-2.606;2022-09-09T17:21:16;20.60;99.90
39951;DHT22;25629;51.444;-2.606;2022-09-09T17:23:42;20.20;99.90
39951;DHT22;25629;51.444;-2.606;2022-09-09T17:26:10;19.90;99.90
39951;DHT22;25629;51.444;-2.606;2022-09-09T17:28:37;19.70;99.90
39951;DHT22;25629;51.444;-2.606;2022-09-09T17:31:05;19.60;99.90
39951;DHT22;25629;51.444;-2.606;2022-09-09T17:33:33;19.40;99.90
39951;DHT22;25629;51.444;-2.606;2022-09-09T17:36:27;19.30;99.90
39951;DHT22;25629;51.444;-2.606;2022-09-09T17:38:53;19.20;99.90
39951;DHT22;25629;51.444;-2.606;2022-09-09T17:41:21;19.10;99.90